Time;durP1;ratioP1;P1;durP2;ratioP2;P2;SDS_P1;SDS_P2;PMS_P1;PMS_P2;Temp;Humidity;BMP_temperature;BMP_pressure;BME280_temperature;BME280_humidity;BME280_pressure;Samples;Min_cycle;Max_cycle;Signal;HPM_P1;HPM_P2
2021/07/08 00:01:08;;;;;;;6.20;4.93;;;16.80;99.90;;;;;;5047787;28;20194;-38
2021/07/08 00:03:33;;;;;;;6.00;5.37;;;16.80;99.90;;;;;;5045986;28;20629;-38
2021/07/08 00:05:59;;;;;;;6.57;5.03;;;16.80;99.90;;;;;;5047449;28;20193;-38
2021/07/08 00:08:25;;;;;;;8.33;5.10;;;16.80;99.90;;;;;;5038493;28;20256;-38
2021/07/08 00:10:55;;;;;;;5.60;5.10;;;16.80;99.90;;;;;;5045537;28;20428;-39
2021/07/08 00:13:25;;;;;;;5.93;5.13;;;16.70;99.90;;;;;;5047111;28;20448;-38
2021/07/08 00:15:52;;;;;;;5.40;4.90;;;16.70;99.90;;;;;;5047001;28;20479;-38
2021/07/08 00:18:18;;;;;;;6.27;4.90;;;16.70;99.90;;;;;;5046044;28;20432;-38
2021/07/08 00:20:46;;;;;;;6.10;4.80;;;16.60;99.90;;;;;;5047508;28;20432;-38
2021/07/08 00:23:13;;;;;;;5.23;4.77;;;16.60;99.90;;;;;;5040601;28;20663;-38
2021/07/08 00:25:39;;;;;;;5.80;5.23;;;16.60;99.90;;;;;;5038199;28;20790;-38
2021/07/08 00:28:12;;;;;;;5.43;4.67;;;16.50;99.90;;;;;;5045826;28;20456;-38
2021/07/08 00:30:42;;;;;;;8.67;4.90;;;16.60;99.90;;;;;;5046467;28;20443;-38
2021/07/08 00:33:08;;;;;;;5.23;4.80;;;16.50;99.90;;;;;;5045292;28;20436;-39
2021/07/08 00:35:34;;;;;;;6.03;5.43;;;16.50;99.90;;;;;;5046902;28;20429;-38
2021/07/08 00:38:00;;;;;;;7.90;4.40;;;16.50;99.90;;;;;;5042004;28;20441;-39
2021/07/08 00:40:27;;;;;;;4.80;4.27;;;16.40;99.90;;;;;;5036696;28;20420;-38
2021/07/08 00:42:52;;;;;;;9.40;5.17;;;16.40;99.90;;;;;;5046575;28;20857;-38
2021/07/08 00:45:20;;;;;;;5.37;4.87;;;16.40;99.90;;;;;;5045561;28;20432;-38
2021/07/08 00:47:46;;;;;;;7.00;4.67;;;16.40;99.90;;;;;;5046871;28;20383;-38
2021/07/08 00:50:13;;;;;;;4.40;4.00;;;16.30;99.90;;;;;;5047226;28;20422;-38
2021/07/08 00:52:39;;;;;;;6.97;3.90;;;16.30;99.90;;;;;;5045442;28;20282;-38
2021/07/08 00:55:08;;;;;;;5.07;4.57;;;16.30;99.90;;;;;;5036206;28;21028;-38
2021/07/08 00:57:34;;;;;;;4.70;4.30;;;16.20;99.90;;;;;;5046481;28;20432;-38
2021/07/08 01:00:00;;;;;;;5.43;4.93;;;16.10;99.90;;;;;;5046979;28;20436;-38
2021/07/08 01:02:27;;;;;;;4.20;3.80;;;16.00;99.90;;;;;;5046454;28;20825;-38
2021/07/08 01:04:53;;;;;;;6.10;4.40;;;16.00;99.90;;;;;;5046082;28;20482;-38
2021/07/08 01:07:21;;;;;;;5.43;4.93;;;15.90;99.90;;;;;;5045357;28;21010;-38
2021/07/08 01:09:47;;;;;;;6.60;5.00;;;15.90;99.90;;;;;;5035807;28;20445;-38
2021/07/08 01:12:13;;;;;;;5.13;4.63;;;15.80;99.90;;;;;;5046159;28;20425;-38
2021/07/08 01:14:39;;;;;;;6.80;4.37;;;15.70;99.90;;;;;;5045405;28;20446;-38
2021/07/08 01:17:06;;;;;;;5.83;4.60;;;15.70;99.90;;;;;;5045581;28;20243;-38
2021/07/08 01:19:34;;;;;;;5.03;4.63;;;15.60;99.90;;;;;;5046287;28;20201;-39
2021/07/08 01:22:00;;;;;;;6.10;5.07;;;15.60;99.90;;;;;;5046192;28;20820;-38
2021/07/08 01:24:26;;;;;;;5.00;4.60;;;15.60;99.90;;;;;;5037692;28;20445;-38
2021/07/08 01:26:53;;;;;;;4.50;4.20;;;15.60;99.90;;;;;;5045985;28;20512;-38
2021/07/08 01:29:19;;;;;;;5.17;4.67;;;15.60;99.90;;;;;;5043925;28;20193;-39
2021/07/08 01:31:45;;;;;;;8.77;4.77;;;15.60;99.90;;;;;;5046453;28;20443;-38
2021/07/08 01:34:11;;;;;;;5.50;5.00;;;15.60;99.90;;;;;;5045460;28;20425;-38
2021/07/08 01:36:36;;;;;;;4.73;4.33;;;15.50;99.90;;;;;;5046345;28;20251;-38
2021/07/08 01:39:03;;;;;;;4.60;4.20;;;15.60;99.90;;;;;;5038068;28;20248;-38
2021/07/08 01:41:28;;;;;;;6.40;4.07;;;15.50;99.90;;;;;;5041152;28;20192;-38
2021/07/08 01:43:55;;;;;;;4.13;3.73;;;15.50;99.90;;;;;;5045231;28;20459;-38
2021/07/08 01:46:22;;;;;;;4.97;4.40;;;15.40;99.90;;;;;;5046143;28;20259;-38
2021/07/08 01:48:48;;;;;;;5.30;4.90;;;15.40;99.90;;;;;;5046138;28;20450;-38
2021/07/08 01:51:23;;;;;;;5.40;4.40;;;15.30;99.90;;;;;;5046226;28;20487;-38
2021/07/08 01:56:28;;;;;;;8.90;5.33;;;15.30;99.90;;;;;;5068188;28;21133;-80
2021/07/08 01:58:54;;;;;;;5.60;5.03;;;15.40;99.90;;;;;;5070967;28;20945;-81
2021/07/08 02:01:21;;;;;;;6.13;5.17;;;15.40;99.90;;;;;;5069052;28;20422;-81
2021/07/08 02:07:34;;;;;;;6.23;4.20;;;15.50;99.90;;;;;;5089360;28;20414;-82
2021/07/08 02:10:00;;;;;;;4.50;4.13;;;15.50;99.90;;;;;;5072062;28;20915;-81
2021/07/08 02:12:25;;;;;;;8.67;4.30;;;15.40;99.90;;;;;;5049888;28;20510;-81
2021/07/08 02:14:51;;;;;;;4.83;4.17;;;15.50;99.90;;;;;;5057742;28;20596;-82
2021/07/08 02:17:17;;;;;;;5.67;5.13;;;15.50;99.90;;;;;;5071533;28;20188;-79
2021/07/08 02:19:42;;;;;;;5.53;4.53;;;15.50;99.90;;;;;;5072731;28;20196;-81
2021/07/08 02:22:08;;;;;;;4.13;3.83;;;15.60;99.90;;;;;;5049343;28;20205;-82
2021/07/08 02:24:34;;;;;;;4.60;4.20;;;15.60;99.90;;;;;;5063527;28;20357;-83
2021/07/08 02:26:59;;;;;;;4.63;4.10;;;15.60;99.90;;;;;;5051401;28;20440;-80
2021/07/08 02:29:26;;;;;;;6.23;4.40;;;15.50;99.90;;;;;;5068567;28;20458;-80
2021/07/08 02:31:52;;;;;;;5.00;4.50;;;15.40;99.90;;;;;;5085791;28;20186;-81
2021/07/08 02:34:17;;;;;;;5.37;4.87;;;15.30;99.90;;;;;;5042063;28;20435;-79
2021/07/08 02:36:43;;;;;;;5.87;4.90;;;15.30;99.90;;;;;;5069311;28;20548;-80
2021/07/08 02:39:09;;;;;;;5.27;4.77;;;15.30;99.90;;;;;;5062043;28;20226;-81
2021/07/08 02:41:34;;;;;;;5.70;5.17;;;15.30;99.90;;;;;;5056124;28;20275;-82
2021/07/08 02:44:02;;;;;;;5.37;4.80;;;15.20;99.90;;;;;;5088309;28;20240;-81
2021/07/08 02:46:27;;;;;;;5.37;4.70;;;15.20;99.90;;;;;;5072181;28;20661;-81
2021/07/08 02:48:53;;;;;;;7.43;5.13;;;15.20;99.90;;;;;;5049188;28;20408;-79
2021/07/08 02:51:18;;;;;;;5.53;4.90;;;15.20;99.90;;;;;;5072136;28;20202;-81
2021/07/08 02:53:44;;;;;;;5.73;4.90;;;15.10;99.90;;;;;;5081926;28;20563;-82
2021/07/08 02:56:11;;;;;;;5.37;4.87;;;15.10;99.90;;;;;;5054207;28;20196;-81
2021/07/08 02:58:37;;;;;;;5.47;4.97;;;15.10;99.90;;;;;;5083598;28;20792;-82
2021/07/08 03:01:04;;;;;;;4.97;4.47;;;15.10;99.90;;;;;;5090104;28;20455;-83
2021/07/08 03:03:30;;;;;;;6.40;4.97;;;15.10;99.90;;;;;;5064272;28;20457;-82
2021/07/08 03:05:55;;;;;;;6.03;4.53;;;15.00;99.90;;;;;;5071652;28;20415;-81
2021/07/08 03:08:21;;;;;;;6.93;5.27;;;15.00;99.90;;;;;;5064758;28;20953;-82
2021/07/08 03:10:47;;;;;;;5.70;5.00;;;15.00;99.90;;;;;;5046040;28;20226;-80
2021/07/08 03:13:13;;;;;;;5.10;4.70;;;15.00;99.90;;;;;;5082494;28;20724;-81
2021/07/08 03:15:38;;;;;;;5.20;4.80;;;14.90;99.90;;;;;;5070943;28;20492;-82
2021/07/08 03:18:04;;;;;;;5.37;4.90;;;14.90;99.90;;;;;;5054429;28;20211;-81
2021/07/08 03:20:34;;;;;;;5.50;4.90;;;14.90;99.90;;;;;;5070169;28;20196;-82
2021/07/08 03:23:00;;;;;;;6.60;6.00;;;14.90;99.90;;;;;;5091025;28;20695;-81
2021/07/08 03:25:27;;;;;;;5.13;4.73;;;14.90;99.90;;;;;;5077088;28;20446;-81
2021/07/08 03:27:54;;;;;;;5.13;4.70;;;14.80;99.90;;;;;;5091751;28;20415;-79
2021/07/08 03:30:21;;;;;;;5.63;5.13;;;14.90;99.90;;;;;;5088650;28;20980;-82
2021/07/08 03:32:48;;;;;;;6.83;5.20;;;14.90;99.90;;;;;;5080034;28;20430;-80
2021/07/08 03:35:14;;;;;;;4.93;4.50;;;14.90;99.90;;;;;;5072144;28;20442;-81
2021/07/08 03:37:41;;;;;;;5.67;5.17;;;14.80;99.90;;;;;;5047682;28;20457;-82
2021/07/08 03:40:08;;;;;;;5.67;5.00;;;14.80;99.90;;;;;;5084840;28;20451;-82
2021/07/08 03:42:36;;;;;;;6.10;4.80;;;14.80;99.90;;;;;;5087130;28;20860;-80
2021/07/08 03:45:04;;;;;;;5.93;5.43;;;14.80;99.90;;;;;;5071802;28;20478;-81
2021/07/08 03:47:29;;;;;;;5.70;5.10;;;14.80;99.90;;;;;;5074223;28;20407;-81
2021/07/08 03:49:55;;;;;;;5.50;5.00;;;14.80;99.90;;;;;;5040740;28;21030;-81
2021/07/08 03:52:21;;;;;;;7.80;5.67;;;14.80;99.90;;;;;;5053468;28;20204;-81
2021/07/08 03:54:46;;;;;;;5.53;5.00;;;14.80;99.90;;;;;;5067504;28;20238;-81
2021/07/08 03:57:12;;;;;;;5.40;4.90;;;14.80;99.90;;;;;;5032392;28;20192;-81
2021/07/08 03:59:38;;;;;;;6.10;5.40;;;14.90;99.90;;;;;;5072191;28;20185;-82
2021/07/08 04:02:03;;;;;;;5.47;4.90;;;14.90;99.90;;;;;;5090501;28;20211;-82
2021/07/08 04:04:29;;;;;;;5.47;4.90;;;14.90;99.90;;;;;;5091214;28;20208;-81
2021/07/08 04:06:55;;;;;;;5.87;4.50;;;15.00;99.90;;;;;;5092185;28;20422;-80
2021/07/08 04:09:21;;;;;;;5.63;5.03;;;14.90;99.90;;;;;;5090747;28;20438;-81
2021/07/08 04:11:46;;;;;;;6.00;4.80;;;15.00;99.90;;;;;;5061482;28;20185;-81
2021/07/08 04:14:12;;;;;;;5.60;4.70;;;15.00;99.90;;;;;;5070907;28;20680;-79
2021/07/08 04:16:38;;;;;;;5.60;5.03;;;15.10;99.90;;;;;;5067393;28;20606;-82
2021/07/08 04:19:03;;;;;;;5.23;4.80;;;15.10;99.90;;;;;;5091002;28;20547;-81
2021/07/08 04:21:29;;;;;;;4.60;4.20;;;15.20;99.90;;;;;;5069035;28;20192;-83
2021/07/08 04:23:55;;;;;;;6.93;5.30;;;15.20;99.90;;;;;;5073507;28;20311;-79
2021/07/08 04:26:21;;;;;;;6.33;5.33;;;15.20;99.90;;;;;;5062552;28;20611;-80
2021/07/08 04:28:47;;;;;;;5.90;5.37;;;15.10;99.90;;;;;;5069420;28;20439;-79
2021/07/08 04:31:15;;;;;;;6.07;5.50;;;15.10;99.90;;;;;;5085396;28;20188;-80
2021/07/08 04:33:42;;;;;;;6.03;5.37;;;15.00;99.90;;;;;;5085569;28;20446;-79
2021/07/08 04:36:11;;;;;;;6.37;5.77;;;15.10;99.90;;;;;;5065595;28;20471;-81
2021/07/08 04:38:36;;;;;;;6.30;5.70;;;15.00;99.90;;;;;;5068548;28;20842;-83
2021/07/08 04:41:02;;;;;;;6.77;5.90;;;15.10;99.90;;;;;;5064898;28;20522;-81
2021/07/08 04:43:28;;;;;;;6.20;4.83;;;15.10;99.90;;;;;;5062611;28;20237;-79
2021/07/08 04:45:54;;;;;;;5.63;5.00;;;15.20;99.90;;;;;;5091112;28;20251;-80
2021/07/08 04:48:20;;;;;;;5.93;5.33;;;15.20;99.90;;;;;;5068655;28;20187;-81
2021/07/08 04:50:46;;;;;;;7.53;5.60;;;15.30;99.90;;;;;;5090662;28;20509;-79
2021/07/08 04:53:18;;;;;;;7.67;6.97;;;15.30;99.90;;;;;;5067506;28;20582;-81
2021/07/08 04:55:45;;;;;;;7.17;6.47;;;15.40;99.90;;;;;;5065505;28;20250;-81
2021/07/08 04:58:10;;;;;;;6.00;5.47;;;15.40;99.90;;;;;;5072238;28;20535;-81
2021/07/08 05:00:36;;;;;;;6.07;5.53;;;15.50;99.90;;;;;;5089093;28;20470;-82
2021/07/08 05:03:07;;;;;;;6.67;6.07;;;15.50;99.90;;;;;;5080091;28;20200;-80
2021/07/08 05:05:32;;;;;;;5.77;5.17;;;15.60;99.90;;;;;;5072413;28;20204;-79
2021/07/08 05:07:58;;;;;;;5.57;4.67;;;15.60;99.90;;;;;;5068742;28;20418;-81
2021/07/08 05:10:24;;;;;;;5.90;5.40;;;15.70;99.90;;;;;;5072437;28;20181;-81
2021/07/08 05:12:49;;;;;;;6.80;5.10;;;15.80;99.90;;;;;;5045354;28;20326;-80
2021/07/08 05:15:16;;;;;;;6.50;5.30;;;15.90;99.90;;;;;;5089504;28;20825;-80
2021/07/08 05:17:43;;;;;;;6.70;6.07;;;15.90;99.90;;;;;;5069262;28;20195;-82
2021/07/08 05:20:10;;;;;;;6.70;6.10;;;15.90;99.90;;;;;;5071652;28;20450;-81
2021/07/08 05:22:37;;;;;;;7.30;6.60;;;16.00;99.90;;;;;;5081968;28;20457;-81
2021/07/08 05:25:05;;;;;;;6.30;5.60;;;16.10;99.90;;;;;;5054728;28;20452;-81
2021/07/08 05:27:31;;;;;;;7.17;5.30;;;16.10;99.90;;;;;;5076683;28;20788;-80
2021/07/08 05:29:57;;;;;;;6.80;5.40;;;16.10;99.90;;;;;;5071466;28;20439;-81
2021/07/08 05:32:23;;;;;;;8.03;5.83;;;16.20;99.90;;;;;;5088214;28;20591;-82
2021/07/08 05:34:49;;;;;;;5.20;4.80;;;16.20;99.90;;;;;;5070547;28;20302;-81
2021/07/08 05:37:15;;;;;;;4.97;4.50;;;16.20;99.90;;;;;;5060279;28;20188;-81
2021/07/08 05:39:40;;;;;;;6.53;4.50;;;16.30;99.90;;;;;;5087346;28;20922;-81
2021/07/08 05:42:06;;;;;;;6.90;5.20;;;16.40;99.90;;;;;;5042762;28;20273;-80
2021/07/08 05:44:33;;;;;;;8.73;5.33;;;16.50;99.90;;;;;;5063203;28;20765;-79
2021/07/08 05:46:59;;;;;;;5.70;5.20;;;16.50;99.90;;;;;;5062946;28;20188;-81
2021/07/08 05:49:24;;;;;;;6.77;4.90;;;16.50;99.90;;;;;;5060325;28;20556;-79
2021/07/08 05:51:50;;;;;;;7.07;5.70;;;16.50;99.90;;;;;;5078910;28;20943;-81
2021/07/08 05:54:16;;;;;;;6.10;5.50;;;16.50;99.90;;;;;;5080879;28;20259;-81
2021/07/08 05:56:42;;;;;;;6.20;5.20;;;16.60;99.90;;;;;;5062746;28;20177;-81
2021/07/08 05:59:07;;;;;;;5.03;4.63;;;16.60;99.90;;;;;;5071414;28;20255;-79
2021/07/08 06:01:33;;;;;;;5.57;4.90;;;16.60;99.90;;;;;;5081498;28;20981;-82
2021/07/08 06:03:59;;;;;;;6.70;5.00;;;16.70;99.90;;;;;;5069694;28;20729;-81
2021/07/08 06:06:24;;;;;;;5.47;4.97;;;16.80;99.90;;;;;;5058546;28;20198;-81
2021/07/08 06:08:50;;;;;;;6.20;5.70;;;16.90;99.90;;;;;;5052794;28;20304;-79
2021/07/08 06:11:16;;;;;;;6.30;5.27;;;17.00;99.90;;;;;;5072953;28;20173;-81
2021/07/08 06:13:42;;;;;;;5.50;5.00;;;17.00;99.90;;;;;;5079186;28;20610;-81
2021/07/08 06:16:09;;;;;;;5.50;5.07;;;17.10;99.90;;;;;;5080081;28;20182;-80
2021/07/08 06:18:36;;;;;;;6.73;5.37;;;17.10;99.90;;;;;;5064441;28;20432;-81
2021/07/08 06:21:03;;;;;;;5.33;4.87;;;17.10;99.90;;;;;;5084655;28;20422;-80
2021/07/08 06:23:30;;;;;;;6.90;5.23;;;17.10;99.90;;;;;;5083864;28;21043;-81
2021/07/08 06:25:57;;;;;;;5.70;5.20;;;17.20;99.90;;;;;;5062091;28;20418;-81
2021/07/08 06:31:45;;;;;;;8.83;5.47;;;17.30;99.90;;;;;;5083565;28;20760;-82
2021/07/08 06:34:11;;;;;;;5.70;5.10;;;17.40;99.90;;;;;;5085877;28;20434;-79
2021/07/08 06:36:37;;;;;;;6.00;5.40;;;17.50;99.90;;;;;;5053426;28;20184;-82
2021/07/08 06:39:04;;;;;;;5.40;4.90;;;17.60;99.90;;;;;;5094233;28;20856;-82
2021/07/08 06:41:30;;;;;;;7.60;5.10;;;17.60;99.90;;;;;;5072462;28;20869;-80
2021/07/08 06:43:55;;;;;;;6.97;5.30;;;17.70;99.90;;;;;;5079572;28;20580;-81
2021/07/08 06:46:27;;;;;;;9.03;5.30;;;17.80;99.90;;;;;;5080873;28;20188;-81
2021/07/08 06:48:53;;;;;;;5.20;4.80;;;17.80;99.90;;;;;;5071939;28;20184;-82
2021/07/08 06:51:19;;;;;;;10.00;6.47;;;17.90;99.90;;;;;;5090750;28;20426;-81
2021/07/08 06:53:44;;;;;;;4.80;4.30;;;18.00;99.90;;;;;;5082370;28;20228;-79
2021/07/08 06:56:10;;;;;;;5.00;4.57;;;18.00;99.90;;;;;;5071119;28;20208;-80
2021/07/08 06:58:36;;;;;;;5.10;4.60;;;18.10;99.90;;;;;;5082451;28;20250;-81
2021/07/08 07:01:01;;;;;;;6.87;4.87;;;18.20;99.90;;;;;;5057883;28;20725;-82
2021/07/08 07:03:27;;;;;;;5.63;4.33;;;18.30;99.90;;;;;;5084658;28;20685;-82
2021/07/08 07:05:53;;;;;;;5.00;3.73;;;18.50;99.90;;;;;;5046547;28;20189;-81
2021/07/08 07:08:19;;;;;;;4.60;4.20;;;18.60;99.90;;;;;;5048542;28;20181;-81
2021/07/08 07:10:44;;;;;;;5.30;4.80;;;18.80;99.90;;;;;;5070098;28;20611;-80
2021/07/08 07:13:11;;;;;;;3.80;3.40;;;19.00;99.90;;;;;;5048587;28;20187;-80
2021/07/08 07:15:41;;;;;;;6.87;5.10;;;19.10;99.90;;;;;;5074265;28;20199;-79
2021/07/08 07:18:07;;;;;;;6.20;4.53;;;19.30;99.90;;;;;;5090256;28;20475;-79
2021/07/08 07:20:33;;;;;;;3.90;3.50;;;19.40;99.90;;;;;;5089927;28;20446;-81
2021/07/08 07:22:59;;;;;;;7.07;4.10;;;19.60;99.90;;;;;;5091584;28;20442;-81
2021/07/08 07:25:26;;;;;;;6.77;4.50;;;19.90;99.90;;;;;;5056851;28;20692;-81
2021/07/08 07:27:53;;;;;;;5.60;4.20;;;20.10;99.90;;;;;;5081997;28;20220;-81
2021/07/08 07:30:21;;;;;;;5.73;4.10;;;20.30;99.90;;;;;;5068170;28;20447;-81
2021/07/08 07:32:47;;;;;;;6.77;4.13;;;20.50;99.90;;;;;;5065262;28;20456;-81
2021/07/08 07:35:13;;;;;;;4.30;3.90;;;20.80;99.90;;;;;;5086910;28;20446;-82
2021/07/08 07:37:40;;;;;;;9.27;4.90;;;21.00;99.90;;;;;;5088051;28;20505;-83
2021/07/08 07:40:07;;;;;;;4.53;3.90;;;21.20;99.90;;;;;;5087987;28;20476;-80
2021/07/08 07:42:34;;;;;;;5.90;4.13;;;21.20;99.90;;;;;;5057171;28;20514;-82
2021/07/08 07:45:00;;;;;;;4.87;3.83;;;21.30;99.90;;;;;;5086641;28;20516;-80
2021/07/08 07:47:28;;;;;;;6.67;4.03;;;21.40;99.90;;;;;;5083097;28;20430;-81
2021/07/08 07:49:54;;;;;;;7.57;3.97;;;21.40;99.90;;;;;;5092025;28;20441;-81
2021/07/08 07:52:20;;;;;;;5.47;4.30;;;21.40;99.90;;;;;;5085689;28;20422;-82
2021/07/08 07:54:45;;;;;;;6.13;4.13;;;21.40;99.90;;;;;;5090276;28;20473;-79
2021/07/08 07:57:12;;;;;;;4.80;3.80;;;21.30;99.90;;;;;;5091148;28;20604;-83
2021/07/08 07:59:38;;;;;;;5.30;4.37;;;21.40;99.90;;;;;;5061149;28;20676;-80
2021/07/08 08:02:12;;;;;;;4.10;3.70;;;21.40;99.90;;;;;;5062109;28;20479;-81
2021/07/08 08:10:15;;;;;;;3.53;3.23;;;21.40;99.90;;;;;;5024424;28;20471;-81
2021/07/08 08:12:41;;;;;;;4.27;3.03;;;21.50;99.90;;;;;;5056311;28;20428;-80
2021/07/08 08:15:08;;;;;;;4.50;3.27;;;21.50;99.90;;;;;;5046483;28;20217;-79
2021/07/08 08:17:38;;;;;;;4.97;3.33;;;21.60;99.90;;;;;;5075485;28;20652;-81
2021/07/08 08:20:05;;;;;;;6.40;3.20;;;21.60;99.90;;;;;;5074805;28;20467;-80
2021/07/08 08:22:31;;;;;;;4.93;3.80;;;21.60;99.90;;;;;;5082622;28;21013;-82
2021/07/08 08:24:57;;;;;;;4.33;3.33;;;21.60;99.90;;;;;;5056671;28;20447;-81
2021/07/08 08:27:22;;;;;;;5.07;3.20;;;21.50;99.90;;;;;;5084073;28;20425;-81
2021/07/08 08:29:49;;;;;;;3.70;2.90;;;21.60;99.90;;;;;;5090622;28;20652;-81
2021/07/08 08:32:14;;;;;;;5.10;3.20;;;21.60;99.90;;;;;;5077289;28;20176;-82
2021/07/08 08:34:40;;;;;;;6.53;3.63;;;21.70;99.90;;;;;;5054655;28;20813;-81
2021/07/08 08:37:06;;;;;;;5.53;3.67;;;21.80;99.90;;;;;;5080892;28;20738;-80
2021/07/08 08:39:32;;;;;;;4.33;3.47;;;22.00;99.90;;;;;;5091968;28;20177;-81
2021/07/08 08:41:58;;;;;;;3.90;3.17;;;22.00;99.90;;;;;;5090360;28;20184;-80
2021/07/08 08:44:24;;;;;;;5.27;3.70;;;22.10;99.90;;;;;;5060295;28;20474;-81
2021/07/08 08:46:51;;;;;;;4.07;3.17;;;22.20;99.90;;;;;;5051845;28;20185;-79
2021/07/08 08:49:16;;;;;;;4.03;3.27;;;22.30;99.90;;;;;;5068394;28;20187;-80
2021/07/08 08:51:43;;;;;;;3.93;3.17;;;22.30;99.90;;;;;;5074236;28;20794;-81
2021/07/08 08:54:09;;;;;;;7.60;3.87;;;22.40;99.90;;;;;;5089982;28;20201;-80
2021/07/08 08:56:34;;;;;;;3.73;3.17;;;22.40;99.90;;;;;;5069496;28;20439;-81
2021/07/08 08:59:00;;;;;;;3.83;3.47;;;22.50;99.90;;;;;;5082262;28;20215;-81
2021/07/08 09:01:26;;;;;;;4.40;2.60;;;22.70;99.90;;;;;;5075449;28;20188;-82
2021/07/08 09:03:52;;;;;;;4.00;3.10;;;22.80;99.90;;;;;;5087461;28;20672;-82
2021/07/08 09:06:18;;;;;;;3.53;3.13;;;23.00;99.90;;;;;;5050776;28;20212;-82
2021/07/08 09:08:52;;;;;;;4.50;3.13;;;23.10;99.90;;;;;;5086876;28;20552;-82
2021/07/08 09:11:28;;;;;;;3.50;3.13;;;23.30;99.90;;;;;;5076086;28;20930;-81
2021/07/08 09:13:56;;;;;;;4.20;3.10;;;23.40;99.90;;;;;;5042558;28;20446;-82
2021/07/08 09:16:25;;;;;;;3.60;3.10;;;23.50;99.90;;;;;;5071907;28;20415;-82
2021/07/08 09:19:08;;;;;;;4.50;2.63;;;23.70;99.90;;;;;;5089644;28;20977;-81
2021/07/08 09:21:38;;;;;;;4.27;3.10;;;23.80;99.90;;;;;;5080407;28;20454;-81
2021/07/08 09:24:34;;;;;;;3.80;3.03;;;24.00;99.90;;;;;;5087554;28;21001;-82
2021/07/08 09:27:09;;;;;;;3.00;2.53;;;23.80;99.90;;;;;;5071234;28;20426;-81
2021/07/08 09:29:46;;;;;;;8.43;2.93;;;23.70;99.90;;;;;;5045016;28;20507;-81
2021/07/08 09:32:21;;;;;;;3.17;2.83;;;23.50;99.90;;;;;;5082875;28;20437;-82
2021/07/08 09:34:57;;;;;;;4.13;3.10;;;23.40;99.90;;;;;;5083440;28;20461;-80
2021/07/08 09:37:26;;;;;;;3.33;3.03;;;23.40;99.90;;;;;;5082507;28;20426;-83
2021/07/08 09:40:00;;;;;;;3.70;2.97;;;23.40;99.90;;;;;;5052297;28;20426;-82
2021/07/08 09:42:42;;;;;;;4.20;3.07;;;23.30;99.90;;;;;;5062696;28;20450;-82
2021/07/08 09:45:10;;;;;;;4.00;3.10;;;23.30;99.90;;;;;;5064954;28;20458;-82
2021/07/08 09:47:37;;;;;;;3.10;2.80;;;23.20;99.90;;;;;;5064480;28;20449;-82
2021/07/08 09:50:08;;;;;;;4.50;2.70;;;23.20;99.90;;;;;;5065103;28;20438;-81
2021/07/08 09:52:34;;;;;;;3.17;2.73;;;23.30;99.90;;;;;;5089917;28;20851;-81
2021/07/08 09:57:40;;;;;;;3.13;2.80;;;23.40;99.90;;;;;;5081734;28;20184;-82
2021/07/08 10:00:18;;;;;;;5.10;2.97;;;23.40;99.90;;;;;;5078859;28;20547;-81
2021/07/08 10:02:48;;;;;;;4.13;3.23;;;23.40;99.90;;;;;;5082574;28;20465;-81
2021/07/08 10:05:15;;;;;;;3.03;2.73;;;23.40;99.90;;;;;;5052186;28;20511;-81
2021/07/08 10:07:42;;;;;;;5.30;3.20;;;23.40;99.90;;;;;;5078484;28;20411;-82
2021/07/08 10:10:08;;;;;;;3.87;2.70;;;23.50;99.90;;;;;;5087503;28;20560;-81
2021/07/08 10:12:37;;;;;;;5.77;2.97;;;23.50;99.90;;;;;;5084329;28;20829;-81
2021/07/08 10:15:06;;;;;;;7.23;3.10;;;23.60;99.90;;;;;;5072222;28;20453;-81
2021/07/08 10:17:34;;;;;;;3.00;2.67;;;23.70;99.90;;;;;;5088768;28;20414;-82
2021/07/08 10:20:01;;;;;;;3.67;2.97;;;23.80;99.90;;;;;;5087645;28;20442;-80
2021/07/08 10:22:29;;;;;;;3.50;2.83;;;23.90;99.90;;;;;;5079976;28;20459;-82
2021/07/08 10:24:55;;;;;;;3.90;3.37;;;23.90;99.90;;;;;;5068567;28;20443;-82
2021/07/08 10:27:21;;;;;;;5.43;2.83;;;24.00;99.90;;;;;;5087368;28;20858;-81
2021/07/08 10:29:48;;;;;;;2.97;2.67;;;24.00;99.90;;;;;;5089010;28;20200;-81
2021/07/08 10:32:18;;;;;;;3.77;2.63;;;24.00;99.90;;;;;;5042119;28;20459;-82
2021/07/08 10:34:49;;;;;;;3.60;3.20;;;23.90;99.90;;;;;;5084486;28;21032;-80
2021/07/08 10:37:32;;;;;;;3.27;2.70;;;23.80;99.90;;;;;;5075812;28;20459;-82
2021/07/08 10:40:00;;;;;;;3.53;3.23;;;23.70;99.90;;;;;;5085946;28;20762;-80
2021/07/08 10:42:47;;;;;;;4.07;2.83;;;23.70;99.90;;;;;;5054709;28;21021;-81
2021/07/08 10:45:22;;;;;;;3.17;2.70;;;23.60;99.90;;;;;;5066730;28;21068;-82
2021/07/08 10:47:52;;;;;;;3.37;2.80;;;23.50;99.90;;;;;;5064727;28;20455;-81
2021/07/08 10:50:37;;;;;;;3.77;3.33;;;23.50;99.90;;;;;;5082552;28;20430;-80
2021/07/08 10:53:18;;;;;;;3.47;3.17;;;23.50;99.90;;;;;;5080139;28;20424;-80
2021/07/08 10:56:30;;;;;;;2.73;2.53;;;23.60;99.90;;;;;;5071562;28;20469;-83
2021/07/08 10:58:56;;;;;;;2.70;2.50;;;23.70;99.90;;;;;;5082942;28;20421;-82
2021/07/08 11:01:21;;;;;;;3.20;2.90;;;23.90;99.90;;;;;;5060036;28;20827;-82
2021/07/08 11:03:51;;;;;;;4.17;2.70;;;24.10;99.90;;;;;;5081888;28;20263;-80
2021/07/08 11:06:17;;;;;;;8.43;3.30;;;24.10;99.40;;;;;;5072501;28;20180;-82
2021/07/08 11:08:50;;;;;;;3.10;2.80;;;24.10;99.60;;;;;;5089698;28;20512;-82
2021/07/08 11:11:24;;;;;;;5.33;3.00;;;24.10;99.70;;;;;;5090070;28;20419;-80
2021/07/08 11:14:16;;;;;;;2.60;2.40;;;24.00;99.90;;;;;;5067840;28;20639;-81
2021/07/08 11:16:49;;;;;;;3.20;2.80;;;24.00;99.90;;;;;;5090919;28;20422;-81
2021/07/08 11:19:19;;;;;;;3.73;3.03;;;23.90;99.90;;;;;;5079747;28;20942;-81
2021/07/08 11:21:54;;;;;;;3.67;2.97;;;23.80;99.90;;;;;;5090489;28;20434;-82
2021/07/08 11:24:30;;;;;;;3.40;2.93;;;23.70;99.90;;;;;;5087083;28;20602;-82
2021/07/08 11:27:02;;;;;;;3.57;3.23;;;23.60;99.90;;;;;;5070326;28;20423;-82
2021/07/08 11:29:47;;;;;;;3.53;3.23;;;23.50;99.90;;;;;;5064177;28;20472;-80
2021/07/08 11:32:31;;;;;;;3.60;3.30;;;23.40;99.90;;;;;;5091204;28;20402;-82
2021/07/08 11:35:02;;;;;;;5.40;3.47;;;23.20;99.90;;;;;;5077865;28;20484;-82
2021/07/08 11:37:40;;;;;;;5.47;3.50;;;23.00;99.90;;;;;;5074101;28;20654;-82
2021/07/08 11:40:14;;;;;;;3.90;3.57;;;22.80;99.90;;;;;;5088934;28;20521;-82
2021/07/08 11:42:42;;;;;;;9.30;5.00;;;22.40;99.90;;;;;;5073527;28;20479;-81
2021/07/08 11:45:26;;;;;;;5.97;4.33;;;22.40;99.90;;;;;;5089980;28;20533;-82
2021/07/08 11:47:54;;;;;;;5.30;4.70;;;22.20;99.90;;;;;;5089561;28;20945;-82
2021/07/08 11:50:28;;;;;;;4.57;4.17;;;22.10;99.90;;;;;;5079096;28;20480;-81
2021/07/08 11:53:15;;;;;;;4.60;4.20;;;22.10;99.90;;;;;;5071125;28;20434;-81
2021/07/08 11:55:44;;;;;;;5.37;4.67;;;22.10;99.90;;;;;;5085740;28;20460;-81
2021/07/08 11:58:11;;;;;;;7.73;4.77;;;22.10;99.90;;;;;;5084530;28;20420;-81
2021/07/08 12:00:41;;;;;;;4.50;4.10;;;22.20;99.90;;;;;;5066217;28;20429;-80
2021/07/08 12:03:20;;;;;;;6.10;4.40;;;22.30;99.90;;;;;;5076802;28;20541;-81
2021/07/08 12:05:46;;;;;;;10.47;5.80;;;22.30;99.90;;;;;;5078431;28;21021;-80
2021/07/08 12:08:23;;;;;;;7.43;4.40;;;22.40;99.90;;;;;;5090447;28;20491;-80
2021/07/08 12:11:05;;;;;;;5.03;4.53;;;22.40;99.90;;;;;;5066741;28;20972;-82
2021/07/08 12:13:31;;;;;;;5.63;4.73;;;22.50;99.90;;;;;;5079451;28;20426;-80
2021/07/08 12:16:04;;;;;;;5.00;4.50;;;22.60;99.90;;;;;;5065493;28;20423;-79
2021/07/08 12:18:38;;;;;;;5.07;4.50;;;22.60;99.90;;;;;;5076843;28;20448;-80
2021/07/08 12:21:19;;;;;;;4.90;4.43;;;22.70;99.90;;;;;;5061699;28;20425;-84
2021/07/08 12:23:45;;;;;;;8.27;3.60;;;22.80;99.90;;;;;;5089888;28;20730;-81
2021/07/08 12:26:43;;;;;;;4.97;3.77;;;22.90;99.90;;;;;;5081053;28;20411;-81
2021/07/08 12:29:36;;;;;;;4.47;4.07;;;22.90;99.90;;;;;;5079128;28;20177;-80
2021/07/08 12:32:05;;;;;;;5.87;3.40;;;23.00;99.90;;;;;;5087494;28;20843;-80
2021/07/08 12:34:36;;;;;;;3.97;3.57;;;23.00;99.90;;;;;;5077431;28;20439;-80
2021/07/08 12:37:19;;;;;;;4.93;3.73;;;23.00;99.90;;;;;;5086657;28;20422;-80
2021/07/08 12:39:46;;;;;;;4.30;3.90;;;23.10;99.90;;;;;;5081823;28;20753;-81
2021/07/08 12:42:20;;;;;;;5.47;4.53;;;23.20;99.90;;;;;;5083907;28;20414;-80
2021/07/08 12:44:52;;;;;;;4.23;3.70;;;23.10;99.90;;;;;;5057968;28;20500;-78
2021/07/08 12:47:19;;;;;;;3.80;3.50;;;23.10;99.90;;;;;;5080771;28;20419;-82
2021/07/08 12:49:49;;;;;;;4.37;3.50;;;23.20;99.90;;;;;;5085338;28;20469;-76
2021/07/08 12:52:16;;;;;;;3.23;3.00;;;23.20;99.90;;;;;;5085211;28;20837;-80
2021/07/08 12:54:42;;;;;;;4.73;4.13;;;23.30;99.90;;;;;;5087063;28;20987;-82
2021/07/08 12:57:12;;;;;;;4.03;3.63;;;23.30;99.90;;;;;;5051917;28;20436;-81
2021/07/08 12:59:50;;;;;;;3.47;3.17;;;23.40;99.90;;;;;;5092993;28;20407;-80
2021/07/08 13:02:21;;;;;;;8.00;3.87;;;23.40;99.90;;;;;;5092304;28;20418;-81
2021/07/08 13:04:46;;;;;;;5.07;3.70;;;23.50;99.90;;;;;;5079765;28;20450;-84
2021/07/08 13:07:12;;;;;;;5.13;3.60;;;23.50;99.90;;;;;;5065551;28;20442;-81
2021/07/08 13:09:38;;;;;;;4.00;3.60;;;23.40;99.90;;;;;;5091355;28;20172;-81
2021/07/08 13:12:18;;;;;;;4.03;3.30;;;23.40;99.90;;;;;;5055906;28;20267;-81